sensor_id;sensor_type;location;lat;lon;timestamp;temperature;humidity
38592;DHT22;24356;48.460;11.450;2023-05-10T00:00:08;14.00;77.50
38592;DHT22;24356;48.460;11.450;2023-05-10T00:02:34;14.00;77.40
38592;DHT22;24356;48.460;11.450;2023-05-10T00:05:01;14.00;77.60
38592;DHT22;24356;48.460;11.450;2023-05-10T00:07:27;13.90;77.80
38592;DHT22;24356;48.460;11.450;2023-05-10T00:09:53;13.90;77.80
38592;DHT22;24356;48.460;11.450;2023-05-10T00:12:19;13.90;77.70
38592;DHT22;24356;48.460;11.450;2023-05-10T00:14:45;13.90;78.50
38592;DHT22;24356;48.460;11.450;2023-05-10T00:17:10;13.90;78.10
38592;DHT22;24356;48.460;11.450;2023-05-10T00:19:36;13.90;78.40
38592;DHT22;24356;48.460;11.450;2023-05-10T00:22:02;13.80;78.50
38592;DHT22;24356;48.460;11.450;2023-05-10T00:24:28;13.90;78.60
38592;DHT22;24356;48.460;11.450;2023-05-10T00:26:54;13.80;78.90
38592;DHT22;24356;48.460;11.450;2023-05-10T00:29:19;13.80;79.30
38592;DHT22;24356;48.460;11.450;2023-05-10T00:31:46;13.80;79.10
38592;DHT22;24356;48.460;11.450;2023-05-10T00:34:11;13.80;79.10
38592;DHT22;24356;48.460;11.450;2023-05-10T00:36:37;13.80;79.20
38592;DHT22;24356;48.460;11.450;2023-05-10T00:39:03;13.80;79.40
38592;DHT22;24356;48.460;11.450;2023-05-10T00:41:29;13.80;79.20
38592;DHT22;24356;48.460;11.450;2023-05-10T00:43:57;13.80;79.70
38592;DHT22;24356;48.460;11.450;2023-05-10T00:46:23;13.70;79.50
38592;DHT22;24356;48.460;11.450;2023-05-10T00:48:49;13.70;79.80
38592;DHT22;24356;48.460;11.450;2023-05-10T00:51:15;13.70;79.70
38592;DHT22;24356;48.460;11.450;2023-05-10T00:53:40;13.70;80.00
38592;DHT22;24356;48.460;11.450;2023-05-10T00:56:06;13.70;79.80
38592;DHT22;24356;48.460;11.450;2023-05-10T00:58:32;13.70;79.90
38592;DHT22;24356;48.460;11.450;2023-05-10T01:00:58;13.70;80.00
38592;DHT22;24356;48.460;11.450;2023-05-10T01:03:25;13.70;80.10
38592;DHT22;24356;48.460;11.450;2023-05-10T01:05:51;13.70;80.20
38592;DHT22;24356;48.460;11.450;2023-05-10T01:08:17;13.70;80.30
38592;DHT22;24356;48.460;11.450;2023-05-10T01:10:45;13.70;80.30
38592;DHT22;24356;48.460;11.450;2023-05-10T01:13:11;13.60;80.40
38592;DHT22;24356;48.460;11.450;2023-05-10T01:15:38;13.60;80.70
38592;DHT22;24356;48.460;11.450;2023-05-10T01:18:04;13.60;80.40
38592;DHT22;24356;48.460;11.450;2023-05-10T01:20:41;13.60;80.50
38592;DHT22;24356;48.460;11.450;2023-05-10T01:28:50;13.60;80.90
38592;DHT22;24356;48.460;11.450;2023-05-10T01:31:59;13.60;80.60
38592;DHT22;24356;48.460;11.450;2023-05-10T01:34:35;13.60;80.90
38592;DHT22;24356;48.460;11.450;2023-05-10T01:37:07;13.60;81.60
38592;DHT22;24356;48.460;11.450;2023-05-10T01:39:58;13.60;81.50
38592;DHT22;24356;48.460;11.450;2023-05-10T01:42:31;13.60;81.20
38592;DHT22;24356;48.460;11.450;2023-05-10T01:45:41;13.50;80.80
38592;DHT22;24356;48.460;11.450;2023-05-10T01:48:06;13.60;81.10
38592;DHT22;24356;48.460;11.450;2023-05-10T01:50:34;13.50;81.70
38592;DHT22;24356;48.460;11.450;2023-05-10T01:53:02;13.50;81.40
38592;DHT22;24356;48.460;11.450;2023-05-10T01:55:32;13.50;81.40
38592;DHT22;24356;48.460;11.450;2023-05-10T01:58:10;13.50;82.00
38592;DHT22;24356;48.460;11.450;2023-05-10T02:00:42;13.50;81.50
38592;DHT22;24356;48.460;11.450;2023-05-10T02:03:08;13.50;82.00
38592;DHT22;24356;48.460;11.450;2023-05-10T02:05:36;13.50;82.00
38592;DHT22;24356;48.460;11.450;2023-05-10T02:08:06;13.50;81.90
38592;DHT22;24356;48.460;11.450;2023-05-10T02:10:35;13.50;81.50
38592;DHT22;24356;48.460;11.450;2023-05-10T02:13:02;13.50;81.20
38592;DHT22;24356;48.460;11.450;2023-05-10T02:15:28;13.50;81.40
38592;DHT22;24356;48.460;11.450;2023-05-10T02:17:56;13.40;81.60
38592;DHT22;24356;48.460;11.450;2023-05-10T02:20:25;13.40;81.70
38592;DHT22;24356;48.460;11.450;2023-05-10T02:22:54;13.40;81.40
38592;DHT22;24356;48.460;11.450;2023-05-10T02:25:22;13.40;81.30
38592;DHT22;24356;48.460;11.450;2023-05-10T02:27:49;13.40;81.20
38592;DHT22;24356;48.460;11.450;2023-05-10T02:30:16;13.40;81.20
38592;DHT22;24356;48.460;11.450;2023-05-10T02:32:44;13.40;81.40
38592;DHT22;24356;48.460;11.450;2023-05-10T02:35:11;13.30;81.40
38592;DHT22;24356;48.460;11.450;2023-05-10T02:37:39;13.30;81.40
38592;DHT22;24356;48.460;11.450;2023-05-10T02:40:06;13.30;81.50
38592;DHT22;24356;48.460;11.450;2023-05-10T02:42:35;13.30;81.60
38592;DHT22;24356;48.460;11.450;2023-05-10T02:45:02;13.30;81.60
38592;DHT22;24356;48.460;11.450;2023-05-10T02:47:29;13.30;81.80
38592;DHT22;24356;48.460;11.450;2023-05-10T02:49:55;13.20;81.50
38592;DHT22;24356;48.460;11.450;2023-05-10T02:52:24;13.20;81.90
38592;DHT22;24356;48.460;11.450;2023-05-10T02:54:54;13.20;81.70
38592;DHT22;24356;48.460;11.450;2023-05-10T02:57:27;13.20;81.70
38592;DHT22;24356;48.460;11.450;2023-05-10T02:59:54;13.20;81.70
38592;DHT22;24356;48.460;11.450;2023-05-10T03:02:20;13.20;82.00
38592;DHT22;24356;48.460;11.450;2023-05-10T03:04:46;13.20;82.40
38592;DHT22;24356;48.460;11.450;2023-05-10T03:07:12;13.20;81.90
38592;DHT22;24356;48.460;11.450;2023-05-10T03:09:38;13.20;81.90
38592;DHT22;24356;48.460;11.450;2023-05-10T03:12:25;13.20;82.50
38592;DHT22;24356;48.460;11.450;2023-05-10T03:15:13;13.20;82.00
38592;DHT22;24356;48.460;11.450;2023-05-10T03:20:25;13.10;82.30
38592;DHT22;24356;48.460;11.450;2023-05-10T03:22:55;13.10;82.70
38592;DHT22;24356;48.460;11.450;2023-05-10T03:25:22;13.10;82.60
38592;DHT22;24356;48.460;11.450;2023-05-10T03:27:49;13.10;82.40
38592;DHT22;24356;48.460;11.450;2023-05-10T03:30:16;13.10;82.50
38592;DHT22;24356;48.460;11.450;2023-05-10T03:32:43;13.10;82.50
38592;DHT22;24356;48.460;11.450;2023-05-10T03:35:10;13.10;82.30
38592;DHT22;24356;48.460;11.450;2023-05-10T03:37:37;13.10;82.10
38592;DHT22;24356;48.460;11.450;2023-05-10T03:40:03;13.10;81.90
38592;DHT22;24356;48.460;11.450;2023-05-10T03:42:29;13.10;82.20
38592;DHT22;24356;48.460;11.450;2023-05-10T03:44:55;13.10;82.10
38592;DHT22;24356;48.460;11.450;2023-05-10T03:47:21;13.00;82.50
38592;DHT22;24356;48.460;11.450;2023-05-10T03:49:46;13.10;82.60
38592;DHT22;24356;48.460;11.450;2023-05-10T03:52:12;13.00;83.20
38592;DHT22;24356;48.460;11.450;2023-05-10T03:54:37;13.00;83.10
38592;DHT22;24356;48.460;11.450;2023-05-10T03:57:03;13.00;83.30
38592;DHT22;24356;48.460;11.450;2023-05-10T03:59:30;13.00;82.90
38592;DHT22;24356;48.460;11.450;2023-05-10T04:01:56;13.00;83.10
38592;DHT22;24356;48.460;11.450;2023-05-10T04:04:21;13.00;82.70
38592;DHT22;24356;48.460;11.450;2023-05-10T04:06:48;13.00;82.60
38592;DHT22;24356;48.460;11.450;2023-05-10T04:09:17;13.00;82.40
38592;DHT22;24356;48.460;11.450;2023-05-10T04:11:43;13.00;83.10
38592;DHT22;24356;48.460;11.450;2023-05-10T04:14:08;13.00;82.90
38592;DHT22;24356;48.460;11.450;2023-05-10T04:16:35;13.00;82.40
38592;DHT22;24356;48.460;11.450;2023-05-10T04:19:01;13.00;82.60
38592;DHT22;24356;48.460;11.450;2023-05-10T04:21:27;13.00;82.50
38592;DHT22;24356;48.460;11.450;2023-05-10T04:23:55;13.00;82.50
38592;DHT22;24356;48.460;11.450;2023-05-10T04:26:20;13.00;82.30
38592;DHT22;24356;48.460;11.450;2023-05-10T04:28:47;13.00;82.40
38592;DHT22;24356;48.460;11.450;2023-05-10T04:31:12;13.00;82.60
38592;DHT22;24356;48.460;11.450;2023-05-10T04:33:38;13.00;82.70
38592;DHT22;24356;48.460;11.450;2023-05-10T04:36:04;13.00;82.60
38592;DHT22;24356;48.460;11.450;2023-05-10T04:38:30;13.00;82.50
38592;DHT22;24356;48.460;11.450;2023-05-10T04:41:09;13.00;82.70
38592;DHT22;24356;48.460;11.450;2023-05-10T04:43:36;13.00;82.90
38592;DHT22;24356;48.460;11.450;2023-05-10T04:46:03;13.00;83.20
38592;DHT22;24356;48.460;11.450;2023-05-10T04:48:28;13.00;83.20
38592;DHT22;24356;48.460;11.450;2023-05-10T04:50:55;13.00;83.60
38592;DHT22;24356;48.460;11.450;2023-05-10T04:53:22;13.00;83.60
38592;DHT22;24356;48.460;11.450;2023-05-10T04:55:48;13.00;84.10
38592;DHT22;24356;48.460;11.450;2023-05-10T04:58:14;13.00;83.50
38592;DHT22;24356;48.460;11.450;2023-05-10T05:00:40;13.00;83.30
38592;DHT22;24356;48.460;11.450;2023-05-10T05:03:05;13.00;83.10
38592;DHT22;24356;48.460;11.450;2023-05-10T05:05:31;13.00;83.10
38592;DHT22;24356;48.460;11.450;2023-05-10T05:07:57;13.00;82.90
38592;DHT22;24356;48.460;11.450;2023-05-10T05:10:23;13.10;82.70
38592;DHT22;24356;48.460;11.450;2023-05-10T05:12:49;13.10;82.80
38592;DHT22;24356;48.460;11.450;2023-05-10T05:15:15;13.10;83.40
38592;DHT22;24356;48.460;11.450;2023-05-10T05:17:43;13.10;83.20
38592;DHT22;24356;48.460;11.450;2023-05-10T05:20:09;13.10;83.30
38592;DHT22;24356;48.460;11.450;2023-05-10T05:22:36;13.00;82.80
38592;DHT22;24356;48.460;11.450;2023-05-10T05:25:02;13.00;83.20
38592;DHT22;24356;48.460;11.450;2023-05-10T05:27:28;13.00;83.30
38592;DHT22;24356;48.460;11.450;2023-05-10T05:29:55;13.00;82.90
38592;DHT22;24356;48.460;11.450;2023-05-10T05:32:20;13.00;83.20
38592;DHT22;24356;48.460;11.450;2023-05-10T05:34:47;13.00;83.20
38592;DHT22;24356;48.460;11.450;2023-05-10T05:37:19;13.00;83.10
38592;DHT22;24356;48.460;11.450;2023-05-10T05:39:46;13.00;83.20
38592;DHT22;24356;48.460;11.450;2023-05-10T05:42:12;13.00;82.90
38592;DHT22;24356;48.460;11.450;2023-05-10T05:44:39;13.00;82.70
38592;DHT22;24356;48.460;11.450;2023-05-10T05:47:05;13.00;83.20
38592;DHT22;24356;48.460;11.450;2023-05-10T05:49:31;13.00;82.80
38592;DHT22;24356;48.460;11.450;2023-05-10T05:52:01;13.00;83.10
38592;DHT22;24356;48.460;11.450;2023-05-10T05:54:27;13.10;82.80
38592;DHT22;24356;48.460;11.450;2023-05-10T05:56:57;13.10;82.90
38592;DHT22;24356;48.460;11.450;2023-05-10T05:59:23;13.10;83.20
38592;DHT22;24356;48.460;11.450;2023-05-10T06:01:50;13.10;83.10
38592;DHT22;24356;48.460;11.450;2023-05-10T06:04:17;13.10;82.90
38592;DHT22;24356;48.460;11.450;2023-05-10T06:06:43;13.10;83.10
38592;DHT22;24356;48.460;11.450;2023-05-10T06:09:09;13.10;82.90
38592;DHT22;24356;48.460;11.450;2023-05-10T06:11:36;13.10;82.70
38592;DHT22;24356;48.460;11.450;2023-05-10T06:14:04;13.10;82.80
38592;DHT22;24356;48.460;11.450;2023-05-10T06:16:33;13.10;82.70
38592;DHT22;24356;48.460;11.450;2023-05-10T06:19:00;13.20;82.70
38592;DHT22;24356;48.460;11.450;2023-05-10T06:21:26;13.20;82.80
38592;DHT22;24356;48.460;11.450;2023-05-10T06:23:51;13.20;82.60
38592;DHT22;24356;48.460;11.450;2023-05-10T06:26:17;13.20;82.60
38592;DHT22;24356;48.460;11.450;2023-05-10T06:28:42;13.30;82.10
38592;DHT22;24356;48.460;11.450;2023-05-10T06:31:08;13.30;82.50
38592;DHT22;24356;48.460;11.450;2023-05-10T06:33:34;13.40;82.40
38592;DHT22;24356;48.460;11.450;2023-05-10T06:36:01;13.40;82.50
38592;DHT22;24356;48.460;11.450;2023-05-10T06:38:27;13.50;82.70
38592;DHT22;24356;48.460;11.450;2023-05-10T06:40:53;13.50;82.70
38592;DHT22;24356;48.460;11.450;2023-05-10T06:43:19;13.60;82.10
38592;DHT22;24356;48.460;11.450;2023-05-10T06:45:45;13.70;82.10
38592;DHT22;24356;48.460;11.450;2023-05-10T06:48:11;13.70;82.30
38592;DHT22;24356;48.460;11.450;2023-05-10T06:50:38;13.80;82.10
38592;DHT22;24356;48.460;11.450;2023-05-10T06:53:05;13.80;81.60
38592;DHT22;24356;48.460;11.450;2023-05-10T06:55:30;13.90;81.70
38592;DHT22;24356;48.460;11.450;2023-05-10T06:57:56;14.00;81.70
38592;DHT22;24356;48.460;11.450;2023-05-10T07:00:21;14.00;81.40
38592;DHT22;24356;48.460;11.450;2023-05-10T07:02:47;14.10;81.90
38592;DHT22;24356;48.460;11.450;2023-05-10T07:05:13;14.20;81.10
38592;DHT22;24356;48.460;11.450;2023-05-10T07:07:39;14.20;81.30
38592;DHT22;24356;48.460;11.450;2023-05-10T07:10:05;14.30;81.20
38592;DHT22;24356;48.460;11.450;2023-05-10T07:12:31;14.30;80.90
38592;DHT22;24356;48.460;11.450;2023-05-10T07:14:56;14.40;81.40
38592;DHT22;24356;48.460;11.450;2023-05-10T07:17:22;14.50;80.90
38592;DHT22;24356;48.460;11.450;2023-05-10T07:19:49;14.50;80.80
38592;DHT22;24356;48.460;11.450;2023-05-10T07:22:16;14.50;80.50
38592;DHT22;24356;48.460;11.450;2023-05-10T07:24:42;14.60;80.60
38592;DHT22;24356;48.460;11.450;2023-05-10T07:27:08;14.70;80.60
38592;DHT22;24356;48.460;11.450;2023-05-10T07:29:34;14.70;80.90
38592;DHT22;24356;48.460;11.450;2023-05-10T07:32:01;14.80;80.90
38592;DHT22;24356;48.460;11.450;2023-05-10T07:34:27;14.90;80.70
38592;DHT22;24356;48.460;11.450;2023-05-10T07:36:54;15.00;81.00
38592;DHT22;24356;48.460;11.450;2023-05-10T07:39:19;15.10;80.80
38592;DHT22;24356;48.460;11.450;2023-05-10T07:41:46;15.20;80.50
38592;DHT22;24356;48.460;11.450;2023-05-10T07:44:12;15.30;80.60
38592;DHT22;24356;48.460;11.450;2023-05-10T07:46:37;15.40;80.30
38592;DHT22;24356;48.460;11.450;2023-05-10T07:49:03;15.50;80.10
38592;DHT22;24356;48.460;11.450;2023-05-10T07:51:29;15.60;79.70
38592;DHT22;24356;48.460;11.450;2023-05-10T07:53:55;15.60;79.60
38592;DHT22;24356;48.460;11.450;2023-05-10T07:56:24;15.60;79.30
38592;DHT22;24356;48.460;11.450;2023-05-10T07:58:51;15.60;79.40
38592;DHT22;24356;48.460;11.450;2023-05-10T08:01:17;15.60;79.50
38592;DHT22;24356;48.460;11.450;2023-05-10T08:03:43;15.60;79.80
38592;DHT22;24356;48.460;11.450;2023-05-10T08:06:08;15.70;79.80
38592;DHT22;24356;48.460;11.450;2023-05-10T08:08:34;15.70;79.90
38592;DHT22;24356;48.460;11.450;2023-05-10T08:11:00;15.80;79.70
38592;DHT22;24356;48.460;11.450;2023-05-10T08:13:25;15.80;79.60
38592;DHT22;24356;48.460;11.450;2023-05-10T08:15:51;15.80;79.30
38592;DHT22;24356;48.460;11.450;2023-05-10T08:18:21;15.80;79.20
38592;DHT22;24356;48.460;11.450;2023-05-10T08:20:46;15.80;79.00
38592;DHT22;24356;48.460;11.450;2023-05-10T08:23:12;15.70;79.10
38592;DHT22;24356;48.460;11.450;2023-05-10T08:25:39;15.70;78.80
38592;DHT22;24356;48.460;11.450;2023-05-10T08:28:05;15.70;78.80
38592;DHT22;24356;48.460;11.450;2023-05-10T08:30:30;15.60;79.10
38592;DHT22;24356;48.460;11.450;2023-05-10T08:32:56;15.60;79.60
38592;DHT22;24356;48.460;11.450;2023-05-10T08:35:22;15.60;80.00
38592;DHT22;24356;48.460;11.450;2023-05-10T08:37:48;15.70;80.10
38592;DHT22;24356;48.460;11.450;2023-05-10T08:40:14;15.70;80.40
38592;DHT22;24356;48.460;11.450;2023-05-10T08:42:44;15.80;80.40
38592;DHT22;24356;48.460;11.450;2023-05-10T08:45:11;15.90;80.60
38592;DHT22;24356;48.460;11.450;2023-05-10T08:47:37;16.00;80.50
38592;DHT22;24356;48.460;11.450;2023-05-10T08:50:06;16.20;80.20
38592;DHT22;24356;48.460;11.450;2023-05-10T08:52:33;16.40;80.10
38592;DHT22;24356;48.460;11.450;2023-05-10T08:55:04;16.60;79.20
38592;DHT22;24356;48.460;11.450;2023-05-10T08:57:29;16.70;78.80
38592;DHT22;24356;48.460;11.450;2023-05-10T08:59:55;16.80;78.40
38592;DHT22;24356;48.460;11.450;2023-05-10T09:02:21;16.80;78.00
38592;DHT22;24356;48.460;11.450;2023-05-10T09:04:48;16.80;78.10
38592;DHT22;24356;48.460;11.450;2023-05-10T09:07:15;16.70;77.90
38592;DHT22;24356;48.460;11.450;2023-05-10T09:09:41;16.60;77.70
38592;DHT22;24356;48.460;11.450;2023-05-10T09:12:09;16.50;77.60
38592;DHT22;24356;48.460;11.450;2023-05-10T09:14:36;16.40;77.70
38592;DHT22;24356;48.460;11.450;2023-05-10T09:17:03;16.30;78.00
38592;DHT22;24356;48.460;11.450;2023-05-10T09:19:29;16.30;78.20
38592;DHT22;24356;48.460;11.450;2023-05-10T09:21:54;16.20;78.50
38592;DHT22;24356;48.460;11.450;2023-05-10T09:24:25;16.10;79.00
38592;DHT22;24356;48.460;11.450;2023-05-10T09:26:51;16.10;79.50
38592;DHT22;24356;48.460;11.450;2023-05-10T09:29:17;16.20;80.40
38592;DHT22;24356;48.460;11.450;2023-05-10T09:31:49;16.20;80.70
38592;DHT22;24356;48.460;11.450;2023-05-10T09:34:30;16.30;80.90
38592;DHT22;24356;48.460;11.450;2023-05-10T09:36:59;16.40;80.40
38592;DHT22;24356;48.460;11.450;2023-05-10T09:42:01;16.70;79.60
38592;DHT22;24356;48.460;11.450;2023-05-10T09:44:29;16.70;79.40
38592;DHT22;24356;48.460;11.450;2023-05-10T09:46:55;16.80;79.30
38592;DHT22;24356;48.460;11.450;2023-05-10T09:49:21;16.80;79.10
38592;DHT22;24356;48.460;11.450;2023-05-10T09:51:57;16.70;78.70
38592;DHT22;24356;48.460;11.450;2023-05-10T09:54:24;16.70;78.50
38592;DHT22;24356;48.460;11.450;2023-05-10T09:56:50;16.70;78.60
38592;DHT22;24356;48.460;11.450;2023-05-10T09:59:15;16.70;78.60
38592;DHT22;24356;48.460;11.450;2023-05-10T10:01:42;16.70;78.60
38592;DHT22;24356;48.460;11.450;2023-05-10T10:04:14;16.70;78.50
38592;DHT22;24356;48.460;11.450;2023-05-10T10:06:40;16.70;78.50
38592;DHT22;24356;48.460;11.450;2023-05-10T10:09:07;16.70;78.50
38592;DHT22;24356;48.460;11.450;2023-05-10T10:11:35;16.60;78.60
38592;DHT22;24356;48.460;11.450;2023-05-10T10:14:01;16.70;78.60
38592;DHT22;24356;48.460;11.450;2023-05-10T10:16:29;16.70;78.50
38592;DHT22;24356;48.460;11.450;2023-05-10T10:18:55;16.70;78.60
38592;DHT22;24356;48.460;11.450;2023-05-10T10:21:22;16.80;78.60
38592;DHT22;24356;48.460;11.450;2023-05-10T10:23:48;16.90;78.40
38592;DHT22;24356;48.460;11.450;2023-05-10T10:26:15;17.00;78.80
38592;DHT22;24356;48.460;11.450;2023-05-10T10:29:23;17.20;78.70
38592;DHT22;24356;48.460;11.450;2023-05-10T10:32:22;17.30;78.40
38592;DHT22;24356;48.460;11.450;2023-05-10T10:34:50;17.50;78.00
38592;DHT22;24356;48.460;11.450;2023-05-10T10:37:15;17.60;77.60
38592;DHT22;24356;48.460;11.450;2023-05-10T10:39:41;17.60;77.30
38592;DHT22;24356;48.460;11.450;2023-05-10T10:42:07;17.70;77.00
38592;DHT22;24356;48.460;11.450;2023-05-10T10:47:22;17.70;76.90
38592;DHT22;24356;48.460;11.450;2023-05-10T10:50:03;17.80;76.80
38592;DHT22;24356;48.460;11.450;2023-05-10T10:52:37;17.80;77.00
38592;DHT22;24356;48.460;11.450;2023-05-10T11:03:14;17.80;76.00
38592;DHT22;24356;48.460;11.450;2023-05-10T11:05:44;17.80;75.90
38592;DHT22;24356;48.460;11.450;2023-05-10T11:08:19;17.80;76.00
38592;DHT22;24356;48.460;11.450;2023-05-10T11:16:14;17.80;76.60
38592;DHT22;24356;48.460;11.450;2023-05-10T11:18:40;17.90;76.80
38592;DHT22;24356;48.460;11.450;2023-05-10T11:21:16;18.00;76.80
38592;DHT22;24356;48.460;11.450;2023-05-10T11:23:52;18.10;76.80
38592;DHT22;24356;48.460;11.450;2023-05-10T11:26:18;18.10;76.70
38592;DHT22;24356;48.460;11.450;2023-05-10T11:28:48;18.20;76.50
38592;DHT22;24356;48.460;11.450;2023-05-10T11:31:15;18.30;76.30
38592;DHT22;24356;48.460;11.450;2023-05-10T11:33:50;18.30;76.20
38592;DHT22;24356;48.460;11.450;2023-05-10T11:36:18;18.30;75.90
38592;DHT22;24356;48.460;11.450;2023-05-10T11:38:45;18.30;75.70
38592;DHT22;24356;48.460;11.450;2023-05-10T11:41:11;18.30;75.40
38592;DHT22;24356;48.460;11.450;2023-05-10T11:43:39;18.30;75.30
38592;DHT22;24356;48.460;11.450;2023-05-10T11:46:06;18.30;75.30
38592;DHT22;24356;48.460;11.450;2023-05-10T11:48:32;18.30;75.00
38592;DHT22;24356;48.460;11.450;2023-05-10T11:50:58;18.20;75.00
38592;DHT22;24356;48.460;11.450;2023-05-10T11:53:27;18.20;75.00
38592;DHT22;24356;48.460;11.450;2023-05-10T11:55:53;18.10;74.70
38592;DHT22;24356;48.460;11.450;2023-05-10T11:58:19;18.10;74.70
38592;DHT22;24356;48.460;11.450;2023-05-10T12:00:46;18.00;74.60
38592;DHT22;24356;48.460;11.450;2023-05-10T12:03:13;18.00;74.40
38592;DHT22;24356;48.460;11.450;2023-05-10T12:05:39;17.90;74.40
38592;DHT22;24356;48.460;11.450;2023-05-10T12:08:14;17.90;74.20
38592;DHT22;24356;48.460;11.450;2023-05-10T12:10:41;17.80;74.20
38592;DHT22;24356;48.460;11.450;2023-05-10T12:13:14;17.80;74.20
38592;DHT22;24356;48.460;11.450;2023-05-10T12:15:41;17.80;74.20
38592;DHT22;24356;48.460;11.450;2023-05-10T12:18:09;17.70;74.10
38592;DHT22;24356;48.460;11.450;2023-05-10T12:20:35;17.70;74.40
38592;DHT22;24356;48.460;11.450;2023-05-10T12:23:02;17.70;74.40
38592;DHT22;24356;48.460;11.450;2023-05-10T12:25:33;17.60;74.40
38592;DHT22;24356;48.460;11.450;2023-05-10T12:28:02;17.60;74.50
38592;DHT22;24356;48.460;11.450;2023-05-10T12:30:30;17.50;74.60
38592;DHT22;24356;48.460;11.450;2023-05-10T12:33:01;17.50;74.70
38592;DHT22;24356;48.460;11.450;2023-05-10T12:35:30;17.40;74.80
38592;DHT22;24356;48.460;11.450;2023-05-10T12:37:55;17.40;74.90
38592;DHT22;24356;48.460;11.450;2023-05-10T12:40:21;17.30;74.70
38592;DHT22;24356;48.460;11.450;2023-05-10T12:42:47;17.30;74.80
38592;DHT22;24356;48.460;11.450;2023-05-10T12:45:14;17.30;74.80
38592;DHT22;24356;48.460;11.450;2023-05-10T12:47:40;17.30;74.80
38592;DHT22;24356;48.460;11.450;2023-05-10T12:50:06;17.30;74.70
38592;DHT22;24356;48.460;11.450;2023-05-10T12:52:32;17.20;74.70
38592;DHT22;24356;48.460;11.450;2023-05-10T12:54:58;17.20;74.70
38592;DHT22;24356;48.460;11.450;2023-05-10T12:57:24;17.20;74.70
38592;DHT22;24356;48.460;11.450;2023-05-10T12:59:50;17.20;74.70
38592;DHT22;24356;48.460;11.450;2023-05-10T13:02:16;17.10;74.70
38592;DHT22;24356;48.460;11.450;2023-05-10T13:04:44;17.10;74.90
38592;DHT22;24356;48.460;11.450;2023-05-10T13:07:10;17.10;75.20
38592;DHT22;24356;48.460;11.450;2023-05-10T13:09:35;17.00;75.20
38592;DHT22;24356;48.460;11.450;2023-05-10T13:12:02;17.00;75.20
38592;DHT22;24356;48.460;11.450;2023-05-10T13:14:30;17.00;75.40
38592;DHT22;24356;48.460;11.450;2023-05-10T13:16:56;16.90;75.80
38592;DHT22;24356;48.460;11.450;2023-05-10T13:19:21;16.90;76.00
38592;DHT22;24356;48.460;11.450;2023-05-10T13:21:47;16.90;76.20
38592;DHT22;24356;48.460;11.450;2023-05-10T13:24:13;16.90;76.40
38592;DHT22;24356;48.460;11.450;2023-05-10T13:26:40;16.90;76.60
38592;DHT22;24356;48.460;11.450;2023-05-10T13:29:06;16.90;76.60
38592;DHT22;24356;48.460;11.450;2023-05-10T13:31:32;16.90;76.50
38592;DHT22;24356;48.460;11.450;2023-05-10T13:33:57;16.80;76.50
38592;DHT22;24356;48.460;11.450;2023-05-10T13:36:23;16.80;76.80
38592;DHT22;24356;48.460;11.450;2023-05-10T13:38:48;16.80;76.90
38592;DHT22;24356;48.460;11.450;2023-05-10T13:41:14;16.80;77.10
38592;DHT22;24356;48.460;11.450;2023-05-10T13:43:40;16.70;77.10
38592;DHT22;24356;48.460;11.450;2023-05-10T13:46:05;16.70;77.20
38592;DHT22;24356;48.460;11.450;2023-05-10T13:48:31;16.70;77.30
38592;DHT22;24356;48.460;11.450;2023-05-10T13:50:56;16.70;77.30
38592;DHT22;24356;48.460;11.450;2023-05-10T13:53:22;16.70;77.30
38592;DHT22;24356;48.460;11.450;2023-05-10T13:55:49;16.70;77.20
38592;DHT22;24356;48.460;11.450;2023-05-10T13:58:15;16.70;77.50
38592;DHT22;24356;48.460;11.450;2023-05-10T14:00:40;16.70;77.70
38592;DHT22;24356;48.460;11.450;2023-05-10T14:03:06;16.70;77.70
38592;DHT22;24356;48.460;11.450;2023-05-10T14:05:32;16.70;77.90
38592;DHT22;24356;48.460;11.450;2023-05-10T14:07:58;16.80;77.90
38592;DHT22;24356;48.460;11.450;2023-05-10T14:10:24;16.80;77.10
38592;DHT22;24356;48.460;11.450;2023-05-10T14:12:50;16.90;76.80
38592;DHT22;24356;48.460;11.450;2023-05-10T14:15:15;16.90;76.80
38592;DHT22;24356;48.460;11.450;2023-05-10T14:17:42;17.00;77.40
38592;DHT22;24356;48.460;11.450;2023-05-10T14:20:08;17.00;77.20
38592;DHT22;24356;48.460;11.450;2023-05-10T14:22:34;17.10;77.10
38592;DHT22;24356;48.460;11.450;2023-05-10T14:25:00;17.20;77.10
38592;DHT22;24356;48.460;11.450;2023-05-10T14:27:26;17.30;76.90
38592;DHT22;24356;48.460;11.450;2023-05-10T14:29:51;17.40;76.80
38592;DHT22;24356;48.460;11.450;2023-05-10T14:32:18;17.40;75.60
38592;DHT22;24356;48.460;11.450;2023-05-10T14:34:44;17.40;76.30
38592;DHT22;24356;48.460;11.450;2023-05-10T14:37:13;17.50;76.40
38592;DHT22;24356;48.460;11.450;2023-05-10T14:39:40;17.60;76.20
38592;DHT22;24356;48.460;11.450;2023-05-10T14:42:07;17.70;75.70
38592;DHT22;24356;48.460;11.450;2023-05-10T14:44:35;17.40;74.80
38592;DHT22;24356;48.460;11.450;2023-05-10T14:47:01;17.30;75.60
38592;DHT22;24356;48.460;11.450;2023-05-10T14:49:27;17.40;75.60
38592;DHT22;24356;48.460;11.450;2023-05-10T14:51:54;17.50;75.40
38592;DHT22;24356;48.460;11.450;2023-05-10T14:54:20;17.60;75.00
38592;DHT22;24356;48.460;11.450;2023-05-10T14:56:45;17.60;74.80
38592;DHT22;24356;48.460;11.450;2023-05-10T14:59:11;17.60;74.70
38592;DHT22;24356;48.460;11.450;2023-05-10T15:01:37;17.60;74.50
38592;DHT22;24356;48.460;11.450;2023-05-10T15:04:05;17.60;74.20
38592;DHT22;24356;48.460;11.450;2023-05-10T15:06:32;17.50;74.40
38592;DHT22;24356;48.460;11.450;2023-05-10T15:08:59;17.50;74.40
38592;DHT22;24356;48.460;11.450;2023-05-10T15:11:25;17.40;74.30
38592;DHT22;24356;48.460;11.450;2023-05-10T15:13:51;17.40;74.40
38592;DHT22;24356;48.460;11.450;2023-05-10T15:16:17;17.30;74.70
38592;DHT22;24356;48.460;11.450;2023-05-10T15:18:43;17.30;74.90
38592;DHT22;24356;48.460;11.450;2023-05-10T15:21:09;17.20;75.40
38592;DHT22;24356;48.460;11.450;2023-05-10T15:23:34;17.10;75.50
38592;DHT22;24356;48.460;11.450;2023-05-10T15:26:00;17.00;75.80
38592;DHT22;24356;48.460;11.450;2023-05-10T15:28:26;17.00;75.70
38592;DHT22;24356;48.460;11.450;2023-05-10T15:30:51;16.90;76.00
38592;DHT22;24356;48.460;11.450;2023-05-10T15:33:17;16.80;76.00
38592;DHT22;24356;48.460;11.450;2023-05-10T15:35:43;16.70;76.10
38592;DHT22;24356;48.460;11.450;2023-05-10T15:38:09;16.70;76.00
38592;DHT22;24356;48.460;11.450;2023-05-10T15:40:35;16.60;76.40
38592;DHT22;24356;48.460;11.450;2023-05-10T15:43:00;16.50;76.70